Flight Track Log - Related Links

Times and Time Zones

All times are in EDT time to prevent confusion due to time zone crossing. See the CSC8651 flight status page for this flight to view local times or setup timezone preferences in your user account.

Time Position Orientation Groundspeed Altitude Reporting Facility
EDT Latitude Longitude Course Direction KTS MPH feet Rate Location/Type
Tue 04:30:00 AM 29.9404 103.5951 206° Southwest  Level Estimated
Tue 04:31:00 AM 29.8766 103.5602 205° Southwest  Level Estimated
Tue 04:32:00 AM 29.8127 103.5253 205° Southwest  Level Estimated
Tue 04:33:00 AM 29.7488 103.4904 205° Southwest  Level Estimated
Tue 04:34:00 AM 29.6849 103.4556 205° Southwest  Level Estimated
Tue 04:35:00 AM 29.6210 103.4209 205° Southwest  Level Estimated
Tue 04:36:00 AM 29.5571 103.3861 205° Southwest  Level Estimated
Tue 04:37:00 AM 29.4932 103.3515 205° Southwest  Level Estimated
Tue 04:38:00 AM 29.4293 103.3168 205° Southwest  Level Estimated
Tue 04:39:00 AM 29.3653 103.2822 205° Southwest  Level Estimated
Tue 04:40:00 AM 29.3014 103.2477 205° Southwest  Level Estimated
Tue 04:41:00 AM 29.2374 103.2132 205° Southwest  Level Estimated
Tue 04:42:00 AM 29.1735 103.1787 205° Southwest  Level Estimated
Tue 04:43:00 AM 29.1095 103.1443 205° Southwest  Level Estimated
Tue 04:44:00 AM 29.0455 103.1099 205° Southwest  Level Estimated
Tue 04:45:00 AM 28.9815 103.0756 205° Southwest  Level Estimated
Tue 04:46:00 AM 28.9175 103.0413 205° Southwest  Level Estimated
Tue 04:47:00 AM 28.8535 103.0070 205° Southwest  Level Estimated
Tue 04:48:00 AM 28.7895 102.9728 205° Southwest  Level Estimated
Tue 04:49:00 AM 28.7255 102.9387 205° Southwest  Level Estimated
Tue 04:50:00 AM 28.6615 102.9045 205° Southwest  Level Estimated
Tue 04:51:00 AM 28.5974 102.8705 205° Southwest  Level Estimated
Tue 04:52:00 AM 28.5334 102.8364 205° Southwest  Level Estimated
Tue 04:53:00 AM 28.4693 102.8024 205° Southwest  Level Estimated
Tue 04:54:00 AM 28.4053 102.7685 205° Southwest  Level Estimated
Tue 04:55:00 AM 28.3412 102.7346 205° Southwest  Level Estimated
Tue 04:56:00 AM 28.2771 102.7007 205° Southwest  Level Estimated
Tue 04:57:00 AM 28.2130 102.6668 205° Southwest  Level Estimated
Tue 04:58:00 AM 28.1489 102.6331 205° Southwest  Level Estimated
Tue 04:59:00 AM 28.0848 102.5993 205° Southwest  Level Estimated
Tue 05:00:00 AM 28.0207 102.5656 205° Southwest  Level Estimated
Tue 05:01:00 AM 27.9566 102.5319 205° Southwest  Level Estimated
Tue 05:02:00 AM 27.8924 102.4983 205° Southwest  Level Estimated
Tue 05:03:00 AM 27.8283 102.4647 205° Southwest  Level Estimated
Tue 05:04:00 AM 27.7642 102.4311 205° Southwest  Level Estimated
Tue 05:05:00 AM 27.7000 102.3976 205° Southwest  Level Estimated
Tue 05:06:00 AM 27.6358 102.3642 205° Southwest  Level Estimated
Tue 05:07:00 AM 27.5717 102.3307 205° Southwest  Level Estimated
Tue 05:08:00 AM 27.5075 102.2973 205° Southwest  Level Estimated
Tue 05:09:00 AM 27.4433 102.2640 205° Southwest  Level Estimated
Tue 05:10:00 AM 27.3791 102.2306 205° Southwest  Level Estimated
Tue 05:11:00 AM 27.3149 102.1974 205° Southwest  Level Estimated
Tue 05:12:00 AM 27.2507 102.1641 205° Southwest  Level Estimated
Tue 05:13:00 AM 27.1865 102.1309 205° Southwest  Level Estimated
Tue 05:14:00 AM 27.1222 102.0977 205° Southwest  Level Estimated
Tue 05:15:00 AM 27.0580 102.0646 205° Southwest  Level Estimated
Tue 05:16:00 AM 26.9937 102.0315 205° Southwest  Level Estimated
Tue 05:17:00 AM 26.9295 101.9985 205° Southwest  Level Estimated
Tue 05:18:00 AM 26.8652 101.9655 205° Southwest  Level Estimated
Tue 05:19:00 AM 26.8010 101.9325 205° Southwest  Level Estimated
Tue 05:20:00 AM 26.7367 101.8996 205° Southwest  Level Estimated
Tue 05:21:00 AM 26.6724 101.8667 205° Southwest  Level Estimated
Tue 05:22:00 AM 26.6081 101.8338 205° Southwest  Level Estimated

Login

Don't have an account? Register now (free) for customized features, flight alerts, and more!